Time;durP1;ratioP1;P1;durP2;ratioP2;P2;SDS_P1;SDS_P2;PMS_P1;PMS_P2;Temp;Humidity;BMP_temperature;BMP_pressure;BME280_temperature;BME280_humidity;BME280_pressure;Samples;Min_cycle;Max_cycle;Signal;HPM_P1;HPM_P2
2021/10/25 00:01:14;;;;;;;;;;;13.70;99.90;;;;;;5035345;28;19905;-79
2021/10/25 00:03:40;;;;;;;;;;;13.70;99.90;;;;;;5035317;28;19905;-79
2021/10/25 00:06:06;;;;;;;;;;;13.70;99.90;;;;;;5035230;28;19905;-79
2021/10/25 00:08:32;;;;;;;;;;;13.80;99.90;;;;;;5035029;28;20014;-79
2021/10/25 00:10:57;;;;;;;;;;;13.80;99.90;;;;;;5035402;28;19920;-79
2021/10/25 00:13:23;;;;;;;;;;;13.70;99.90;;;;;;5050428;28;19905;-79
2021/10/25 00:15:48;;;;;;;;;;;13.70;99.90;;;;;;5035029;28;19905;-80
2021/10/25 00:18:14;;;;;;;;;;;13.80;99.90;;;;;;5035008;28;19996;-79
2021/10/25 00:20:40;;;;;;;;;;;13.80;99.90;;;;;;5050356;28;19905;-80
2021/10/25 00:23:06;;;;;;;;;;;13.80;99.90;;;;;;5035116;28;19909;-79
2021/10/25 00:25:32;;;;;;;;;;;13.80;99.90;;;;;;5033621;28;20357;-79
2021/10/25 00:27:58;;;;;;;;;;;13.90;99.90;;;;;;5034916;28;20373;-80
2021/10/25 00:30:23;;;;;;;;;;;13.90;99.90;;;;;;5034733;28;19905;-80
2021/10/25 00:32:49;;;;;;;;;;;13.80;99.90;;;;;;5033363;28;19955;-79
2021/10/25 00:35:15;;;;;;;;;;;13.80;99.90;;;;;;5033399;28;19905;-79
2021/10/25 00:37:41;;;;;;;;;;;13.70;99.90;;;;;;5034570;28;19908;-79
2021/10/25 00:40:07;;;;;;;;;;;13.80;99.90;;;;;;5034356;28;19987;-80
2021/10/25 00:42:33;;;;;;;;;;;13.70;99.90;;;;;;5034744;28;19956;-80
2021/10/25 00:44:59;;;;;;;;;;;13.70;99.90;;;;;;5034495;28;19909;-79
2021/10/25 00:47:24;;;;;;;;;;;13.80;99.90;;;;;;5033204;28;19905;-80
2021/10/25 00:49:50;;;;;;;;;;;13.80;99.90;;;;;;5034418;28;19912;-80
2021/10/25 00:52:16;;;;;;;;;;;13.80;99.90;;;;;;5049534;28;20427;-78
2021/10/25 00:54:42;;;;;;;;;;;13.70;99.90;;;;;;5034287;28;19906;-79
2021/10/25 00:57:07;;;;;;;;;;;13.80;99.90;;;;;;5034536;28;19905;-79
2021/10/25 00:59:33;;;;;;;;;;;13.80;99.90;;;;;;5034316;28;19905;-79
2021/10/25 01:02:02;;;;;;;;;;;13.80;99.90;;;;;;5032924;28;19909;-79
2021/10/25 01:04:28;;;;;;;;;;;13.70;99.90;;;;;;5032800;28;20273;-79
2021/10/25 01:06:54;;;;;;;;;;;13.70;99.90;;;;;;5034303;28;19905;-79
2021/10/25 01:09:20;;;;;;;;;;;13.70;99.90;;;;;;5033776;28;19917;-79
2021/10/25 01:11:45;;;;;;;;;;;13.70;99.90;;;;;;5033971;28;20424;-79
2021/10/25 01:14:11;;;;;;;;;;;13.70;99.90;;;;;;5034217;28;19912;-79
2021/10/25 01:16:37;;;;;;;;;;;13.90;99.90;;;;;;5033936;28;19905;-79
2021/10/25 01:19:03;;;;;;;;;;;13.90;99.90;;;;;;5034143;28;19905;-79
2021/10/25 01:21:28;;;;;;;;;;;13.90;99.90;;;;;;5033934;28;19916;-79
2021/10/25 01:23:55;;;;;;;;;;;13.90;99.90;;;;;;5033870;28;19984;-79
2021/10/25 01:26:24;;;;;;;;;;;14.10;99.90;;;;;;5034218;28;19905;-79
2021/10/25 01:28:50;;;;;;;;;;;14.10;99.90;;;;;;5032546;28;19912;-79
2021/10/25 01:31:17;;;;;;;;;;;14.10;99.90;;;;;;5032420;28;19916;-79
2021/10/25 01:33:43;;;;;;;;;;;14.10;99.90;;;;;;5033646;28;20376;-79
2021/10/25 01:36:09;;;;;;;;;;;14.10;99.90;;;;;;5033662;28;19905;-79
2021/10/25 01:38:35;;;;;;;;;;;14.10;99.90;;;;;;5033631;28;19928;-79
2021/10/25 01:41:00;;;;;;;;;;;13.90;99.90;;;;;;5033670;28;19905;-79
2021/10/25 01:43:26;;;;;;;;;;;13.80;99.90;;;;;;5033963;28;19959;-79
2021/10/25 01:45:51;;;;;;;;;;;13.80;99.90;;;;;;5033550;28;19913;-79
2021/10/25 01:48:17;;;;;;;;;;;13.70;99.90;;;;;;5033590;28;20376;-79
2021/10/25 01:50:43;;;;;;;;;;;13.60;99.90;;;;;;5034414;28;19945;-78
2021/10/25 01:53:10;;;;;;;;;;;13.50;99.90;;;;;;5036395;28;19915;-79
2021/10/25 01:55:35;;;;;;;;;;;13.40;99.90;;;;;;5037591;28;19905;-79
2021/10/25 01:58:01;;;;;;;;;;;13.50;99.90;;;;;;5037630;28;19905;-79
2021/10/25 02:00:26;;;;;;;;;;;13.50;99.90;;;;;;5036208;28;20254;-78
2021/10/25 02:02:52;;;;;;;;;;;13.50;99.90;;;;;;5036211;28;19952;-79
2021/10/25 02:05:18;;;;;;;;;;;13.60;99.90;;;;;;5052767;28;19909;-78
2021/10/25 02:07:43;;;;;;;;;;;13.60;99.90;;;;;;5037302;28;19924;-79
2021/10/25 02:10:09;;;;;;;;;;;13.60;99.90;;;;;;5037365;28;20320;-78
2021/10/25 02:12:35;;;;;;;;;;;13.40;99.90;;;;;;5037637;28;19915;-79
2021/10/25 02:15:00;;;;;;;;;;;13.30;99.90;;;;;;5037265;28;19909;-79
2021/10/25 02:17:26;;;;;;;;;;;13.20;99.90;;;;;;5037421;28;19912;-79
2021/10/25 02:19:52;;;;;;;;;;;13.20;99.90;;;;;;5035952;28;19905;-79
2021/10/25 02:22:17;;;;;;;;;;;13.40;99.90;;;;;;5035881;28;19911;-80
2021/10/25 02:24:44;;;;;;;;;;;13.40;99.90;;;;;;5035817;28;19951;-79
2021/10/25 02:27:09;;;;;;;;;;;13.50;99.90;;;;;;5037076;28;20285;-79
2021/10/25 02:29:38;;;;;;;;;;;13.40;99.90;;;;;;5035768;28;19905;-78
2021/10/25 02:32:05;;;;;;;;;;;13.30;99.90;;;;;;5036857;28;19909;-79
2021/10/25 02:34:31;;;;;;;;;;;13.40;99.90;;;;;;5037207;28;19904;-79
2021/10/25 02:36:58;;;;;;;;;;;13.40;99.90;;;;;;5036967;28;19905;-79
2021/10/25 02:39:24;;;;;;;;;;;13.40;99.90;;;;;;5036736;28;19905;-79
2021/10/25 02:41:50;;;;;;;;;;;13.50;99.90;;;;;;5035556;28;19905;-79
2021/10/25 02:44:16;;;;;;;;;;;13.50;99.90;;;;;;5035451;28;19905;-79
2021/10/25 02:46:41;;;;;;;;;;;13.50;99.90;;;;;;5037026;28;19905;-79
2021/10/25 02:49:07;;;;;;;;;;;13.50;99.90;;;;;;5036645;28;19905;-79
2021/10/25 02:51:33;;;;;;;;;;;13.50;99.90;;;;;;5036712;28;19916;-79
2021/10/25 02:53:59;;;;;;;;;;;13.50;99.90;;;;;;5036591;28;19909;-79
2021/10/25 02:56:24;;;;;;;;;;;13.50;99.90;;;;;;5036505;28;19911;-79
2021/10/25 02:58:51;;;;;;;;;;;13.60;99.90;;;;;;5035171;28;20417;-78
2021/10/25 03:01:17;;;;;;;;;;;13.50;99.90;;;;;;5036654;28;20357;-79
2021/10/25 03:03:43;;;;;;;;;;;13.50;99.90;;;;;;5035099;28;19959;-79
2021/10/25 03:06:09;;;;;;;;;;;13.40;99.90;;;;;;5036362;28;19909;-79
2021/10/25 03:08:34;;;;;;;;;;;13.40;99.90;;;;;;5036039;28;19921;-79
2021/10/25 03:11:00;;;;;;;;;;;13.40;99.90;;;;;;5036162;28;19915;-79
2021/10/25 03:13:27;;;;;;;;;;;13.40;99.90;;;;;;5034931;28;19988;-79
2021/10/25 03:15:53;;;;;;;;;;;13.50;99.90;;;;;;5036212;28;19904;-79
2021/10/25 03:18:18;;;;;;;;;;;13.50;99.90;;;;;;5036561;28;20258;-78
2021/10/25 03:20:44;;;;;;;;;;;13.50;99.90;;;;;;5034740;28;19988;-79
2021/10/25 03:23:10;;;;;;;;;;;13.40;99.90;;;;;;5036053;28;20392;-79
2021/10/25 03:25:36;;;;;;;;;;;13.30;99.90;;;;;;5035973;28;19909;-79
2021/10/25 03:28:02;;;;;;;;;;;13.30;99.90;;;;;;5036106;28;19955;-79
2021/10/25 03:30:27;;;;;;;;;;;13.20;99.90;;;;;;5035896;28;20394;-79
2021/10/25 03:32:53;;;;;;;;;;;13.20;99.90;;;;;;5035867;28;19909;-79
2021/10/25 03:35:19;;;;;;;;;;;13.20;99.90;;;;;;5035806;28;20270;-79
2021/10/25 03:37:45;;;;;;;;;;;13.20;99.90;;;;;;5050929;28;19932;-79
2021/10/25 03:40:10;;;;;;;;;;;13.30;99.90;;;;;;5035725;28;19928;-79
2021/10/25 03:42:48;;;;;;;;;;;13.30;99.90;;;;;;5034362;28;19909;-79
2021/10/25 03:45:23;;;;;;;;;;;13.20;99.90;;;;;;5035850;28;20393;-79
2021/10/25 03:48:04;;;;;;;;;;;13.20;99.90;;;;;;5035815;28;20390;-78
2021/10/25 03:50:33;;;;;;;;;;;13.20;99.90;;;;;;5035730;28;19905;-79
2021/10/25 03:53:06;;;;;;;;;;;13.10;99.90;;;;;;5034125;28;20311;-79
2021/10/25 04:00:48;;;;;;;;;;;13.30;99.90;;;;;;5035603;28;19905;-79
2021/10/25 04:03:51;;;;;;;;;;;13.20;99.90;;;;;;5035480;28;19967;-79
2021/10/25 04:28:11;;;;;;;;;;;13.10;99.90;;;;;;5034959;28;19905;-80
2021/10/25 04:30:38;;;;;;;;;;;13.20;99.90;;;;;;5034905;28;19905;-79
2021/10/25 04:33:04;;;;;;;;;;;13.20;99.90;;;;;;5034665;28;19954;-78
2021/10/25 04:35:29;;;;;;;;;;;13.10;99.90;;;;;;5049996;28;19940;-79
2021/10/25 04:37:55;;;;;;;;;;;13.10;99.90;;;;;;5034729;28;19912;-79
2021/10/25 04:40:21;;;;;;;;;;;13.20;99.90;;;;;;5033254;28;19948;-79
2021/10/25 04:42:47;;;;;;;;;;;13.20;99.90;;;;;;5034481;28;19905;-79
2021/10/25 04:45:13;;;;;;;;;;;13.20;99.90;;;;;;5033132;28;20316;-79
2021/10/25 04:47:38;;;;;;;;;;;13.20;99.90;;;;;;5034395;28;20383;-79
2021/10/25 04:50:05;;;;;;;;;;;13.20;99.90;;;;;;5034569;28;19932;-79
2021/10/25 04:52:31;;;;;;;;;;;13.30;99.90;;;;;;5034220;28;19959;-79
2021/10/25 04:54:56;;;;;;;;;;;13.30;99.90;;;;;;5034246;28;20280;-79
2021/10/25 04:57:22;;;;;;;;;;;13.30;99.90;;;;;;5034729;28;19995;-79
2021/10/25 04:59:48;;;;;;;;;;;13.30;99.90;;;;;;5032911;28;20006;-79
2021/10/25 05:02:14;;;;;;;;;;;13.30;99.90;;;;;;5034470;28;20277;-79
2021/10/25 05:04:40;;;;;;;;;;;13.40;99.90;;;;;;5034266;28;20389;-79
2021/10/25 05:07:06;;;;;;;;;;;13.40;99.90;;;;;;5034220;28;19905;-79
2021/10/25 05:09:31;;;;;;;;;;;13.30;99.90;;;;;;5033640;28;19928;-79
2021/10/25 05:11:57;;;;;;;;;;;13.20;99.90;;;;;;5049282;28;20273;-79
2021/10/25 05:14:23;;;;;;;;;;;13.00;99.90;;;;;;5049247;28;19927;-79
2021/10/25 05:16:48;;;;;;;;;;;13.00;99.90;;;;;;5032640;28;20428;-79
2021/10/25 05:19:14;;;;;;;;;;;13.00;99.90;;;;;;5033891;28;20003;-79
2021/10/25 05:21:40;;;;;;;;;;;13.00;99.90;;;;;;5049139;28;19905;-79
2021/10/25 05:24:05;;;;;;;;;;;12.90;99.90;;;;;;5034066;28;19908;-79
2021/10/25 05:26:31;;;;;;;;;;;13.00;99.90;;;;;;5031700;28;19909;-79
2021/10/25 05:28:57;;;;;;;;;;;13.00;99.90;;;;;;5033757;28;19964;-78
2021/10/25 05:31:23;;;;;;;;;;;13.10;99.90;;;;;;5033697;28;19915;-78
2021/10/25 05:33:48;;;;;;;;;;;13.00;99.90;;;;;;5033860;28;20396;-78
2021/10/25 05:36:14;;;;;;;;;;;13.10;99.90;;;;;;5033702;28;19905;-79
2021/10/25 05:38:40;;;;;;;;;;;13.10;99.90;;;;;;5033912;28;19920;-80
2021/10/25 05:41:06;;;;;;;;;;;13.10;99.90;;;;;;5033769;28;19912;-79
2021/10/25 05:43:32;;;;;;;;;;;13.10;99.90;;;;;;5033631;28;19909;-79
2021/10/25 05:45:58;;;;;;;;;;;13.00;99.90;;;;;;5032360;28;19952;-79
2021/10/25 05:48:24;;;;;;;;;;;13.00;99.90;;;;;;5033936;28;19905;-79
2021/10/25 05:50:49;;;;;;;;;;;12.80;99.90;;;;;;5048859;28;19970;-79
2021/10/25 05:53:15;;;;;;;;;;;12.70;99.90;;;;;;5033755;28;19905;-79
2021/10/25 05:55:43;;;;;;;;;;;12.70;99.90;;;;;;5033567;28;19948;-79
2021/10/25 05:58:20;;;;;;;;;;;12.70;99.90;;;;;;5034090;28;19909;-80
2021/10/25 06:00:52;;;;;;;;;;;12.70;99.90;;;;;;5033575;28;19960;-79
2021/10/25 06:03:18;;;;;;;;;;;12.70;99.90;;;;;;5033575;28;20411;-79
2021/10/25 06:05:44;;;;;;;;;;;12.70;99.90;;;;;;5032263;28;19905;-80
2021/10/25 06:08:14;;;;;;;;;;;12.80;99.90;;;;;;5033328;28;19917;-79
2021/10/25 06:10:39;;;;;;;;;;;12.90;99.90;;;;;;5032194;28;19988;-79
2021/10/25 06:13:05;;;;;;;;;;;12.80;99.90;;;;;;5033428;28;20004;-79
2021/10/25 06:15:38;;;;;;;;;;;12.80;99.90;;;;;;5033416;28;20413;-78
2021/10/25 06:18:08;;;;;;;;;;;12.60;99.90;;;;;;5033735;28;19905;-79
2021/10/25 06:20:34;;;;;;;;;;;12.70;99.90;;;;;;5032127;28;19905;-79
2021/10/25 06:23:05;;;;;;;;;;;12.70;99.90;;;;;;5033394;28;20385;-80
2021/10/25 06:25:31;;;;;;;;;;;12.70;99.90;;;;;;5031720;28;19987;-79
2021/10/25 06:27:57;;;;;;;;;;;12.60;99.90;;;;;;5033401;28;20413;-80
2021/10/25 06:30:23;;;;;;;;;;;12.50;99.90;;;;;;5033318;28;19912;-79
2021/10/25 06:32:51;;;;;;;;;;;12.40;99.90;;;;;;5033163;28;19913;-80
2021/10/25 06:35:21;;;;;;;;;;;12.40;99.90;;;;;;5033221;28;19905;-79
2021/10/25 06:37:52;;;;;;;;;;;12.40;99.90;;;;;;5034375;28;19913;-79
2021/10/25 06:40:20;;;;;;;;;;;12.40;99.90;;;;;;5052043;28;19905;-79
2021/10/25 06:42:46;;;;;;;;;;;12.50;99.90;;;;;;5036875;28;19948;-79
2021/10/25 06:45:14;;;;;;;;;;;12.40;99.90;;;;;;5036975;28;19951;-79
2021/10/25 06:47:41;;;;;;;;;;;12.50;99.90;;;;;;5036844;28;20000;-79
2021/10/25 06:50:06;;;;;;;;;;;12.50;99.90;;;;;;5036792;28;20000;-79
2021/10/25 06:52:33;;;;;;;;;;;12.70;99.90;;;;;;5035270;28;20338;-79
2021/10/25 06:54:59;;;;;;;;;;;12.60;99.90;;;;;;5036618;28;19909;-79
2021/10/25 06:57:25;;;;;;;;;;;12.60;99.90;;;;;;5036589;28;19955;-79
2021/10/25 06:59:51;;;;;;;;;;;12.50;99.90;;;;;;5036675;28;19905;-80
2021/10/25 07:02:17;;;;;;;;;;;12.50;99.90;;;;;;5035150;28;20270;-79
2021/10/25 07:04:43;;;;;;;;;;;12.60;99.90;;;;;;5036395;28;19928;-79
2021/10/25 07:07:10;;;;;;;;;;;12.50;99.90;;;;;;5036321;28;20369;-80
2021/10/25 07:09:35;;;;;;;;;;;12.60;99.90;;;;;;5051299;28;20370;-79
2021/10/25 07:12:01;;;;;;;;;;;12.60;99.90;;;;;;5036289;28;19916;-79
2021/10/25 07:14:34;;;;;;;;;;;12.40;99.90;;;;;;5051547;28;19905;-80
2021/10/25 07:17:20;;;;;;;;;;;12.40;99.90;;;;;;5034747;28;20311;-79
2021/10/25 08:08:55;;;;;;;;;;;15.70;99.90;;;;;;5035050;28;19983;-80
2021/10/25 08:11:31;;;;;;;;;;;15.30;99.90;;;;;;5035192;28;20408;-80
2021/10/25 08:14:02;;;;;;;;;;;15.00;99.90;;;;;;5033627;28;20369;-79
2021/10/25 08:16:51;;;;;;;;;;;15.00;99.90;;;;;;5035463;28;19909;-80
2021/10/25 08:19:28;;;;;;;;;;;15.20;99.90;;;;;;5034756;28;20373;-80
2021/10/25 08:21:56;;;;;;;;;;;15.60;99.90;;;;;;5035276;28;19952;-79
2021/10/25 08:24:22;;;;;;;;;;;15.70;99.90;;;;;;5034848;28;19943;-79
2021/10/25 08:26:50;;;;;;;;;;;16.10;99.90;;;;;;5035150;28;19912;-80
2021/10/25 08:29:16;;;;;;;;;;;16.80;99.90;;;;;;5034792;28;19974;-80
2021/10/25 08:31:45;;;;;;;;;;;16.90;99.90;;;;;;5034664;28;19948;-80
2021/10/25 08:42:17;;;;;;;;;;;16.40;99.90;;;;;;5034292;28;19905;-80
2021/10/25 08:44:45;;;;;;;;;;;16.30;99.90;;;;;;5033281;28;19923;-79
2021/10/25 08:47:13;;;;;;;;;;;16.60;99.90;;;;;;5034572;28;19992;-80
2021/10/25 08:49:39;;;;;;;;;;;16.20;99.90;;;;;;5034450;28;19939;-80
2021/10/25 08:52:05;;;;;;;;;;;16.20;99.90;;;;;;5049649;28;19956;-79
2021/10/25 08:54:31;;;;;;;;;;;16.60;99.90;;;;;;5034415;28;19940;-80
2021/10/25 08:57:00;;;;;;;;;;;16.60;99.90;;;;;;5034292;28;19951;-80
2021/10/25 08:59:26;;;;;;;;;;;16.20;99.90;;;;;;5034146;28;19912;-79
2021/10/25 09:01:51;;;;;;;;;;;16.10;99.90;;;;;;5034546;28;19905;-79
2021/10/25 09:04:19;;;;;;;;;;;16.00;99.90;;;;;;5049480;28;19955;-80
2021/10/25 09:06:48;;;;;;;;;;;16.00;99.90;;;;;;5034144;28;19905;-79
2021/10/25 09:09:14;;;;;;;;;;;15.60;99.90;;;;;;5033854;28;20463;-79
2021/10/25 09:11:54;;;;;;;;;;;15.30;99.90;;;;;;5034023;28;20016;-80
2021/10/25 09:14:20;;;;;;;;;;;15.30;99.90;;;;;;5034118;28;19975;-79
2021/10/25 09:16:45;;;;;;;;;;;15.10;99.90;;;;;;5033959;28;19905;-79
2021/10/25 09:19:17;;;;;;;;;;;15.10;99.90;;;;;;5034083;28;19913;-79
2021/10/25 09:21:43;;;;;;;;;;;15.00;99.90;;;;;;5032678;28;20349;-79
2021/10/25 09:24:16;;;;;;;;;;;15.00;99.90;;;;;;5033955;28;19909;-79
2021/10/25 09:26:42;;;;;;;;;;;15.20;99.90;;;;;;5033824;28;19905;-79
2021/10/25 09:29:08;;;;;;;;;;;15.30;99.90;;;;;;5049227;28;19905;-79
2021/10/25 09:31:35;;;;;;;;;;;15.60;99.90;;;;;;5033790;28;19909;-79
2021/10/25 09:34:06;;;;;;;;;;;16.10;99.90;;;;;;5033793;28;19940;-79
2021/10/25 09:36:52;;;;;;;;;;;16.30;99.90;;;;;;5033784;28;19996;-80
2021/10/25 09:39:25;;;;;;;;;;;16.60;99.90;;;;;;5048939;28;20324;-80
2021/10/25 09:50:03;;;;;;;;;;;20.00;99.90;;;;;;5033926;28;19955;-80
2021/10/25 09:52:29;;;;;;;;;;;21.00;99.90;;;;;;5048997;28;20385;-80
2021/10/25 09:54:59;;;;;;;;;;;21.80;97.60;;;;;;5034107;28;19905;-80
2021/10/25 09:57:34;;;;;;;;;;;22.00;97.00;;;;;;5033933;28;19905;-80
2021/10/25 09:59:59;;;;;;;;;;;24.20;94.70;;;;;;5034450;28;19916;-81
2021/10/25 10:02:25;;;;;;;;;;;24.60;88.30;;;;;;5033928;28;19905;-81
2021/10/25 10:04:57;;;;;;;;;;;25.30;85.90;;;;;;5034495;28;19908;-81
2021/10/25 10:07:23;;;;;;;;;;;27.20;77.50;;;;;;5033729;28;19944;-80
2021/10/25 10:09:49;;;;;;;;;;;25.00;76.30;;;;;;5049079;28;19928;-80
2021/10/25 10:12:20;;;;;;;;;;;22.90;82.40;;;;;;5035655;28;19935;-80
2021/10/25 10:14:48;;;;;;;;;;;22.00;88.10;;;;;;5037598;28;19955;-80
2021/10/25 10:17:17;;;;;;;;;;;22.10;87.50;;;;;;5037534;28;19931;-80
2021/10/25 10:19:44;;;;;;;;;;;21.00;90.60;;;;;;5036057;28;20372;-80
2021/10/25 10:22:10;;;;;;;;;;;19.90;93.40;;;;;;5037291;28;19905;-80
2021/10/25 10:24:37;;;;;;;;;;;19.10;96.20;;;;;;5037238;28;19905;-80
2021/10/25 10:27:07;;;;;;;;;;;18.90;97.10;;;;;;5037385;28;19905;-80
2021/10/25 10:29:37;;;;;;;;;;;18.80;97.80;;;;;;5037251;28;19947;-80
2021/10/25 10:32:04;;;;;;;;;;;20.60;94.30;;;;;;5037214;28;20357;-80
2021/10/25 10:34:40;;;;;;;;;;;21.80;90.40;;;;;;5036158;28;19948;-81
2021/10/25 10:37:23;;;;;;;;;;;22.50;86.20;;;;;;5037357;28;19905;-81
2021/10/25 10:40:06;;;;;;;;;;;24.50;82.60;;;;;;5036030;28;19959;-81
2021/10/25 10:42:32;;;;;;;;;;;24.90;74.80;;;;;;5037227;28;19909;-81
2021/10/25 10:45:00;;;;;;;;;;;26.20;72.50;;;;;;5037373;28;19944;-81
2021/10/25 10:47:27;;;;;;;;;;;26.60;70.00;;;;;;5036045;28;19992;-80
2021/10/25 10:49:57;;;;;;;;;;;26.20;67.80;;;;;;5037127;28;19937;-81
2021/10/25 10:52:38;;;;;;;;;;;28.20;66.90;;;;;;5035477;28;19932;-81
2021/10/25 10:55:21;;;;;;;;;;;29.20;62.80;;;;;;5052190;28;19912;-81
2021/10/25 11:00:43;;;;;;;;;;;30.00;59.70;;;;;;5036895;28;19945;-81
2021/10/25 11:03:23;;;;;;;;;;;30.20;57.10;;;;;;5036915;28;19909;-81
2021/10/25 11:06:02;;;;;;;;;;;30.30;57.10;;;;;;5035451;28;19908;-81
2021/10/25 11:08:32;;;;;;;;;;;30.90;56.50;;;;;;5035244;28;19924;-81
2021/10/25 11:11:03;;;;;;;;;;;31.80;56.00;;;;;;5036695;28;19909;-81
2021/10/25 11:13:31;;;;;;;;;;;32.80;54.20;;;;;;5052070;28;19909;-81
2021/10/25 11:15:59;;;;;;;;;;;33.00;52.90;;;;;;5036730;28;19905;-81
2021/10/25 11:18:31;;;;;;;;;;;31.90;52.10;;;;;;5035372;28;20254;-81
2021/10/25 11:21:17;;;;;;;;;;;31.20;51.90;;;;;;5036846;28;19905;-80
2021/10/25 11:23:48;;;;;;;;;;;33.00;52.00;;;;;;5034227;28;19936;-80
2021/10/25 11:26:17;;;;;;;;;;;32.10;52.70;;;;;;5037096;28;19912;-80
2021/10/25 11:28:54;;;;;;;;;;;31.60;52.20;;;;;;5036513;28;19905;-80
2021/10/25 11:31:20;;;;;;;;;;;30.70;52.00;;;;;;5036264;28;19959;-80
2021/10/25 11:33:47;;;;;;;;;;;31.80;50.80;;;;;;5034990;28;19984;-80
2021/10/25 11:36:13;;;;;;;;;;;32.60;51.30;;;;;;5036632;28;19954;-80
2021/10/25 11:38:42;;;;;;;;;;;32.80;50.40;;;;;;5036176;28;19908;-80
2021/10/25 11:41:08;;;;;;;;;;;32.80;50.60;;;;;;5051431;28;20277;-80
2021/10/25 11:43:34;;;;;;;;;;;33.10;48.40;;;;;;5035494;28;19905;-80
2021/10/25 11:46:00;;;;;;;;;;;32.40;50.00;;;;;;5036160;28;20439;-80
2021/10/25 11:48:27;;;;;;;;;;;28.20;54.00;;;;;;5036175;28;19905;-80
2021/10/25 11:50:57;;;;;;;;;;;25.40;62.00;;;;;;5035157;28;19950;-80
2021/10/25 11:53:26;;;;;;;;;;;29.80;55.30;;;;;;5051609;28;19908;-80
2021/10/25 11:55:52;;;;;;;;;;;31.20;53.40;;;;;;5036091;28;19951;-80
2021/10/25 11:58:19;;;;;;;;;;;32.10;51.40;;;;;;5036561;28;19904;-80
2021/10/25 12:00:49;;;;;;;;;;;34.30;49.50;;;;;;5034479;28;19991;-80
2021/10/25 12:03:18;;;;;;;;;;;35.30;47.60;;;;;;5036433;28;19905;-80
2021/10/25 12:05:44;;;;;;;;;;;34.70;47.30;;;;;;5035808;28;19928;-80
2021/10/25 12:08:11;;;;;;;;;;;34.60;46.20;;;;;;5035489;28;20373;-79
2021/10/25 12:10:38;;;;;;;;;;;33.70;47.50;;;;;;5035513;28;19905;-80
2021/10/25 12:13:05;;;;;;;;;;;31.50;49.80;;;;;;5035315;28;19909;-80
2021/10/25 12:15:31;;;;;;;;;;;29.30;52.60;;;;;;5034409;28;20358;-80
2021/10/25 12:17:58;;;;;;;;;;;31.10;50.50;;;;;;5034128;28;19905;-80
2021/10/25 12:20:25;;;;;;;;;;;32.80;49.30;;;;;;5033884;28;20285;-79
2021/10/25 12:22:58;;;;;;;;;;;30.50;50.50;;;;;;5034022;28;19974;-80
2021/10/25 12:25:24;;;;;;;;;;;31.80;49.60;;;;;;5050544;28;19909;-80
2021/10/25 12:27:50;;;;;;;;;;;32.70;49.10;;;;;;5050486;28;20269;-80
2021/10/25 12:30:16;;;;;;;;;;;34.10;48.60;;;;;;5035815;28;19955;-80
2021/10/25 12:32:50;;;;;;;;;;;35.50;47.10;;;;;;5034947;28;19936;-80
2021/10/25 12:35:15;;;;;;;;;;;35.40;45.90;;;;;;5034539;28;19905;-80
2021/10/25 12:37:41;;;;;;;;;;;35.30;46.40;;;;;;5035008;28;19904;-80
2021/10/25 12:40:17;;;;;;;;;;;35.20;44.80;;;;;;5034700;28;19912;-80
2021/10/25 12:42:43;;;;;;;;;;;34.00;45.60;;;;;;5034781;28;19905;-80
2021/10/25 12:45:15;;;;;;;;;;;30.00;49.10;;;;;;5050168;28;20279;-80
2021/10/25 12:47:41;;;;;;;;;;;28.20;53.10;;;;;;5034998;28;19912;-79
2021/10/25 12:50:10;;;;;;;;;;;26.00;56.20;;;;;;5035114;28;19904;-80
2021/10/25 12:52:36;;;;;;;;;;;25.20;59.80;;;;;;5034280;28;19913;-79
2021/10/25 12:55:03;;;;;;;;;;;24.90;61.20;;;;;;5035270;28;20285;-79
2021/10/25 12:57:29;;;;;;;;;;;24.30;62.80;;;;;;5035436;28;20384;-79
2021/10/25 12:59:57;;;;;;;;;;;23.60;63.80;;;;;;5035440;28;20350;-79
2021/10/25 13:02:24;;;;;;;;;;;23.20;66.00;;;;;;5033910;28;20023;-79
2021/10/25 13:04:49;;;;;;;;;;;22.30;68.00;;;;;;5035058;28;20269;-79
2021/10/25 13:07:15;;;;;;;;;;;22.20;69.40;;;;;;5034663;28;19905;-79
2021/10/25 13:09:50;;;;;;;;;;;22.00;70.60;;;;;;5034121;28;19921;-79
2021/10/25 13:12:16;;;;;;;;;;;21.40;72.40;;;;;;5034724;28;19912;-79
2021/10/25 13:14:43;;;;;;;;;;;21.60;73.40;;;;;;5034771;28;20326;-79
2021/10/25 13:17:09;;;;;;;;;;;21.90;73.60;;;;;;5034384;28;19944;-79
2021/10/25 13:19:34;;;;;;;;;;;22.20;72.50;;;;;;5034349;28;19939;-79
2021/10/25 13:22:00;;;;;;;;;;;22.00;72.20;;;;;;5032869;28;19909;-79
2021/10/25 13:24:26;;;;;;;;;;;22.10;73.50;;;;;;5034523;28;20376;-79
2021/10/25 13:26:52;;;;;;;;;;;21.10;74.40;;;;;;5034526;28;19905;-80
2021/10/25 13:29:18;;;;;;;;;;;20.50;77.60;;;;;;5034111;28;19931;-78
2021/10/25 13:31:44;;;;;;;;;;;20.20;79.60;;;;;;5032831;28;19913;-80
2021/10/25 13:34:10;;;;;;;;;;;20.40;79.70;;;;;;5034144;28;19905;-80
2021/10/25 13:36:35;;;;;;;;;;;20.40;79.70;;;;;;5033948;28;19928;-79
2021/10/25 13:39:02;;;;;;;;;;;21.90;76.90;;;;;;5033826;28;19905;-80
2021/10/25 13:41:27;;;;;;;;;;;24.80;69.00;;;;;;5034411;28;19991;-79
2021/10/25 13:43:53;;;;;;;;;;;27.40;63.20;;;;;;5034154;28;19975;-80
2021/10/25 13:46:19;;;;;;;;;;;27.80;60.80;;;;;;5033097;28;19909;-80
2021/10/25 13:48:45;;;;;;;;;;;28.90;57.80;;;;;;5033835;28;19905;-80
2021/10/25 13:51:11;;;;;;;;;;;29.90;56.10;;;;;;5032511;28;19912;-80
2021/10/25 13:53:37;;;;;;;;;;;30.60;55.30;;;;;;5033781;28;19912;-80
2021/10/25 13:56:03;;;;;;;;;;;30.20;54.60;;;;;;5033956;28;20297;-80
2021/10/25 13:58:29;;;;;;;;;;;31.20;55.20;;;;;;5033905;28;19940;-80
2021/10/25 14:00:54;;;;;;;;;;;32.80;52.10;;;;;;5033908;28;19912;-80
2021/10/25 14:03:20;;;;;;;;;;;31.60;51.10;;;;;;5033932;28;19908;-80
2021/10/25 14:05:47;;;;;;;;;;;31.10;51.30;;;;;;5048878;28;20285;-80
2021/10/25 14:08:14;;;;;;;;;;;30.30;52.60;;;;;;5048735;28;19951;-80
2021/10/25 14:10:44;;;;;;;;;;;30.40;52.90;;;;;;5033755;28;20285;-80
2021/10/25 14:13:40;;;;;;;;;;;29.80;53.70;;;;;;5033696;28;20015;-80
2021/10/25 14:16:09;;;;;;;;;;;30.50;52.50;;;;;;5033060;28;19905;-80
2021/10/25 14:18:35;;;;;;;;;;;29.10;52.70;;;;;;5048587;28;19905;-80
2021/10/25 14:21:01;;;;;;;;;;;28.80;54.30;;;;;;5048887;28;19905;-80
2021/10/25 14:23:27;;;;;;;;;;;29.80;52.50;;;;;;5033646;28;19963;-80
2021/10/25 14:25:52;;;;;;;;;;;29.10;51.80;;;;;;5033997;28;19928;-79
2021/10/25 14:28:18;;;;;;;;;;;28.90;53.50;;;;;;5033486;28;19905;-79
2021/10/25 14:30:43;;;;;;;;;;;28.70;53.30;;;;;;5033377;28;19905;-79
2021/10/25 14:33:09;;;;;;;;;;;27.20;56.00;;;;;;5033974;28;19916;-79
2021/10/25 14:35:36;;;;;;;;;;;25.40;58.90;;;;;;5033666;28;19905;-80
2021/10/25 14:38:05;;;;;;;;;;;24.40;60.20;;;;;;5032263;28;19916;-79
2021/10/25 14:43:35;;;;;;;;;;;23.60;63.70;;;;;;5021494;28;19951;-79
2021/10/25 14:46:10;;;;;;;;;;;23.40;64.10;;;;;;5032179;28;20023;-79
2021/10/25 14:48:48;;;;;;;;;;;23.00;66.10;;;;;;5032172;28;19911;-79
2021/10/25 14:56:58;;;;;;;;;;;21.60;73.70;;;;;;5021522;28;19905;-80
2021/10/25 14:59:23;;;;;;;;;;;20.90;77.70;;;;;;5036985;28;19905;-79
2021/10/25 15:01:49;;;;;;;;;;;20.60;83.10;;;;;;5036914;28;19920;-79
2021/10/25 15:04:16;;;;;;;;;;;20.10;88.70;;;;;;5037011;28;19984;-80
2021/10/25 15:06:42;;;;;;;;;;;19.70;91.50;;;;;;5036798;28;19912;-80
2021/10/25 15:09:07;;;;;;;;;;;19.40;90.70;;;;;;5036334;28;19921;-79
2021/10/25 15:11:33;;;;;;;;;;;19.50;91.60;;;;;;5051816;28;19955;-80
2021/10/25 15:13:59;;;;;;;;;;;19.60;90.70;;;;;;5036434;28;19909;-80
2021/10/25 15:16:24;;;;;;;;;;;19.70;90.50;;;;;;5036309;28;20322;-80
2021/10/25 15:18:51;;;;;;;;;;;19.70;90.40;;;;;;5035085;28;20292;-79
2021/10/25 15:21:20;;;;;;;;;;;19.70;91.00;;;;;;5036135;28;19905;-79
2021/10/25 15:23:45;;;;;;;;;;;19.50;91.10;;;;;;5051504;28;19912;-79
2021/10/25 15:26:12;;;;;;;;;;;19.50;92.80;;;;;;5036356;28;20297;-79
2021/10/25 15:28:37;;;;;;;;;;;19.60;92.70;;;;;;5036231;28;19971;-79
2021/10/25 15:31:03;;;;;;;;;;;21.10;87.80;;;;;;5036247;28;20362;-79
2021/10/25 15:33:28;;;;;;;;;;;20.80;90.10;;;;;;5036246;28;19984;-79
2021/10/25 15:35:56;;;;;;;;;;;20.70;88.10;;;;;;5051433;28;20476;-79
2021/10/25 15:38:26;;;;;;;;;;;20.30;88.20;;;;;;5035964;28;19905;-79
2021/10/25 15:40:52;;;;;;;;;;;19.80;90.60;;;;;;5051305;28;19905;-79
2021/10/25 15:43:18;;;;;;;;;;;19.00;92.30;;;;;;5036062;28;19916;-80
2021/10/25 15:45:43;;;;;;;;;;;18.60;93.20;;;;;;5051144;28;19936;-79
2021/10/25 15:48:10;;;;;;;;;;;18.60;93.60;;;;;;5035733;28;20411;-79
2021/10/25 15:50:36;;;;;;;;;;;19.10;93.10;;;;;;5035878;28;19905;-80
2021/10/25 15:53:02;;;;;;;;;;;19.30;93.50;;;;;;5035947;28;20416;-79
2021/10/25 15:55:29;;;;;;;;;;;19.40;93.20;;;;;;5035813;28;19905;-79
2021/10/25 15:57:56;;;;;;;;;;;19.40;93.80;;;;;;5034330;28;20282;-79
2021/10/25 16:00:23;;;;;;;;;;;19.60;93.00;;;;;;5035602;28;19905;-79
2021/10/25 16:02:49;;;;;;;;;;;19.60;93.10;;;;;;5035459;28;19916;-80